createdAt,value
2023-03-01T00:01:38.881Z,64.34
2023-03-01T00:04:05.382Z,64.30
2023-03-01T00:06:32.494Z,64.73
2023-03-01T00:08:59.266Z,64.34
2023-03-01T00:11:28.159Z,64.11
2023-03-01T00:13:58.090Z,63.61
2023-03-01T00:16:30.907Z,64.14
2023-03-01T00:18:58.741Z,64.56
2023-03-01T00:26:29.993Z,66.38
2023-03-01T00:28:58.596Z,66.33
2023-03-01T00:31:28.635Z,67.14
2023-03-01T00:33:58.232Z,67.04
2023-03-01T00:36:27.080Z,66.56
2023-03-01T00:38:53.934Z,66.83
2023-03-01T00:41:21.609Z,67.82
2023-03-01T00:43:48.621Z,67.61
2023-03-01T00:46:21.106Z,67.19
2023-03-01T00:51:28.665Z,67.88
2023-03-01T00:53:57.852Z,67.10
2023-03-01T00:56:24.890Z,67.63
2023-03-01T00:58:51.969Z,67.97
2023-03-01T01:01:22.104Z,68.62
2023-03-01T01:03:50.999Z,68.81
2023-03-01T01:06:32.429Z,70.29
2023-03-01T01:08:59.890Z,69.80
2023-03-01T01:11:28.864Z,69.21
2023-03-01T01:13:55.843Z,69.93
2023-03-01T01:16:24.428Z,69.89
2023-03-01T01:18:51.725Z,69.73
2023-03-01T01:23:55.355Z,68.76
2023-03-01T01:26:27.810Z,68.92
2023-03-01T01:28:55.314Z,68.69
2023-03-01T01:31:24.707Z,68.56
2023-03-01T01:33:52.632Z,68.60
2023-03-01T01:36:19.257Z,68.18
2023-03-01T01:38:45.960Z,68.00
2023-03-01T01:41:14.462Z,68.12
2023-03-01T01:43:47.252Z,67.26
2023-03-01T01:46:29.692Z,67.19
2023-03-01T01:49:18.732Z,67.26
2023-03-01T01:54:53.203Z,68.33
2023-03-01T01:57:24.949Z,67.53
2023-03-01T01:59:55.771Z,66.93
2023-03-01T02:05:11.577Z,67.62
2023-03-01T02:07:40.321Z,67.60
2023-03-01T02:10:07.531Z,68.03
2023-03-01T02:15:11.067Z,68.38
2023-03-01T02:17:38.650Z,67.51
2023-03-01T02:20:18.690Z,67.50
2023-03-01T02:22:46.298Z,68.34
2023-03-01T02:25:34.012Z,67.52
2023-03-01T02:28:16.734Z,67.39
2023-03-01T02:36:17.191Z,67.42
2023-03-01T02:38:44.926Z,67.04
2023-03-01T02:41:16.016Z,67.32
2023-03-01T02:43:43.217Z,68.08
2023-03-01T02:46:16.394Z,68.41
2023-03-01T02:48:49.805Z,68.45
2023-03-01T02:51:22.677Z,68.65
2023-03-01T02:54:18.875Z,68.49
2023-03-01T02:56:50.108Z,68.04
2023-03-01T02:59:20.745Z,67.82
2023-03-01T03:01:47.624Z,67.61
2023-03-01T03:04:22.231Z,67.10
2023-03-01T03:06:50.905Z,67.54
2023-03-01T03:09:18.725Z,67.67
2023-03-01T03:11:45.338Z,67.14
2023-03-01T03:14:14.254Z,67.98
2023-03-01T03:16:50.862Z,68.34
2023-03-01T03:19:19.842Z,67.62
2023-03-01T03:21:46.917Z,68.04
2023-03-01T03:24:13.597Z,67.57
2023-03-01T03:29:11.486Z,67.74
2023-03-01T03:31:38.050Z,67.07
2023-03-01T03:34:04.639Z,67.52
2023-03-01T03:36:31.374Z,67.63
2023-03-01T03:38:58.126Z,67.30
2023-03-01T03:41:24.895Z,66.82
2023-03-01T03:43:51.498Z,67.76
2023-03-01T03:46:18.187Z,68.05
2023-03-01T03:48:46.674Z,66.50
2023-03-01T03:51:15.663Z,66.23
2023-03-01T03:53:42.733Z,66.37
2023-03-01T03:56:09.653Z,67.03
2023-03-01T03:58:36.879Z,67.68
2023-03-01T04:01:03.733Z,67.67
2023-03-01T04:03:32.934Z,67.19
2023-03-01T04:06:01.491Z,67.74
2023-03-01T04:08:29.003Z,67.22
2023-03-01T04:11:23.661Z,67.10
2023-03-01T04:13:50.574Z,66.75
2023-03-01T04:16:18.808Z,67.52
2023-03-01T04:18:45.408Z,67.52
2023-03-01T04:21:12.596Z,68.17
2023-03-01T04:23:39.562Z,67.81
2023-03-01T04:26:06.371Z,67.90
2023-03-01T04:28:44.135Z,67.87
2023-03-01T04:31:17.524Z,67.88
2023-03-01T04:33:50.216Z,67.48
2023-03-01T04:36:17.792Z,68.42
2023-03-01T04:38:48.467Z,67.56
2023-03-01T04:41:19.758Z,67.22
2023-03-01T04:43:46.310Z,66.59
2023-03-01T04:46:16.105Z,66.24
2023-03-01T04:48:44.422Z,66.42
2023-03-01T04:51:14.626Z,66.81
2023-03-01T04:53:42.490Z,66.22
2023-03-01T04:56:09.581Z,66.69
2023-03-01T05:01:19.927Z,66.30
2023-03-01T05:03:52.423Z,66.86
2023-03-01T05:06:20.379Z,66.39
2023-03-01T05:11:18.251Z,66.94
2023-03-01T05:13:44.802Z,67.61
2023-03-01T05:16:12.774Z,67.27
2023-03-01T05:18:41.340Z,67.62
2023-03-01T05:21:12.883Z,67.96
2023-03-01T05:23:40.248Z,68.71
2023-03-01T05:26:16.197Z,69.13
2023-03-01T05:28:49.165Z,68.84
2023-03-01T05:31:15.795Z,68.07
2023-03-01T05:33:42.735Z,68.59
2023-03-01T05:36:10.804Z,68.48
2023-03-01T05:38:37.411Z,68.38
2023-03-01T05:41:04.308Z,68.25
2023-03-01T05:43:35.059Z,67.90
2023-03-01T05:46:02.190Z,67.83
2023-03-01T05:48:28.696Z,67.87
2023-03-01T05:50:55.196Z,67.88
2023-03-01T05:53:22.245Z,68.12
2023-03-01T05:55:48.955Z,67.38
2023-03-01T05:58:18.557Z,68.25
2023-03-01T06:00:47.406Z,69.35
2023-03-01T06:03:15.704Z,69.37
2023-03-01T06:05:42.959Z,69.00
2023-03-01T06:08:11.609Z,69.38
2023-03-01T06:10:38.433Z,69.39
2023-03-01T06:15:36.589Z,69.86
2023-03-01T06:18:03.198Z,70.16
2023-03-01T06:20:30.223Z,73.45
2023-03-01T06:22:57.358Z,70.67
2023-03-01T06:25:26.394Z,70.83
2023-03-01T06:27:55.678Z,70.88
2023-03-01T06:30:24.280Z,70.61
2023-03-01T06:32:51.216Z,69.65
2023-03-01T06:35:19.435Z,70.01
2023-03-01T06:37:48.437Z,69.53
2023-03-01T06:40:15.491Z,69.20
2023-03-01T06:42:44.940Z,69.51
2023-03-01T06:45:11.696Z,70.03
2023-03-01T06:47:38.228Z,69.99
2023-03-01T06:50:05.208Z,69.75
2023-03-01T06:52:32.079Z,70.06
2023-03-01T06:54:58.695Z,69.76
2023-03-01T06:57:25.459Z,70.27
2023-03-01T06:59:51.936Z,69.52
2023-03-01T07:02:19.018Z,72.93
2023-03-01T07:04:45.630Z,70.03
2023-03-01T07:07:12.356Z,69.55
2023-03-01T07:09:38.973Z,69.29
2023-03-01T07:12:05.845Z,69.79
2023-03-01T07:14:32.407Z,70.05
2023-03-01T07:16:59.010Z,68.99
2023-03-01T07:19:25.695Z,69.74
2023-03-01T07:21:52.310Z,69.85
2023-03-01T07:24:18.913Z,68.97
2023-03-01T07:26:45.450Z,68.77
2023-03-01T07:31:43.595Z,67.42
2023-03-01T07:36:44.266Z,65.90
2023-03-01T07:39:12.067Z,64.77
2023-03-01T07:41:38.857Z,65.25
2023-03-01T07:44:05.922Z,64.34
2023-03-01T07:46:33.347Z,64.45
2023-03-01T07:49:00.150Z,64.10
2023-03-01T07:51:26.712Z,63.91
2023-03-01T07:53:53.246Z,63.23
2023-03-01T07:56:20.632Z,62.84
2023-03-01T07:58:48.193Z,63.50
2023-03-01T08:01:19.349Z,62.73
2023-03-01T08:03:46.486Z,62.58
2023-03-01T08:06:15.307Z,62.72
2023-03-01T08:08:42.624Z,61.89
2023-03-01T08:11:12.455Z,61.69
2023-03-01T08:13:39.166Z,59.95
2023-03-01T08:16:08.905Z,60.34
2023-03-01T08:18:35.757Z,60.64
2023-03-01T08:21:07.688Z,61.02
2023-03-01T08:23:34.401Z,60.71
2023-03-01T08:26:16.100Z,60.83
2023-03-01T08:28:42.971Z,60.35
2023-03-01T08:31:17.315Z,59.32
2023-03-01T08:33:43.976Z,59.13
2023-03-01T08:36:10.657Z,59.32
2023-03-01T08:38:37.219Z,59.66
2023-03-01T08:41:04.512Z,58.21
2023-03-01T08:43:31.570Z,58.58
2023-03-01T08:45:58.474Z,58.63
2023-03-01T08:48:25.589Z,57.12
2023-03-01T08:50:52.543Z,57.18
2023-03-01T08:53:19.141Z,56.86
2023-03-01T08:55:45.687Z,56.34
2023-03-01T08:58:12.526Z,55.25
2023-03-01T09:00:39.388Z,54.95
2023-03-01T09:03:05.973Z,53.98
2023-03-01T09:05:34.018Z,54.23
2023-03-01T09:08:00.683Z,53.35
2023-03-01T09:10:27.285Z,53.08
2023-03-01T09:12:53.845Z,52.93
2023-03-01T09:15:20.429Z,52.28
2023-03-01T09:17:47.986Z,51.74
2023-03-01T09:20:14.924Z,51.65
2023-03-01T09:22:41.544Z,51.28
2023-03-01T09:25:08.566Z,51.39
2023-03-01T09:27:35.164Z,51.33
2023-03-01T09:30:01.909Z,49.41
2023-03-01T09:32:31.019Z,49.43
2023-03-01T09:37:39.137Z,48.84
2023-03-01T09:40:08.308Z,49.35
2023-03-01T09:42:37.048Z,49.29
2023-03-01T09:45:12.577Z,48.52
2023-03-01T09:47:39.097Z,48.43
2023-03-01T09:50:12.303Z,48.02
2023-03-01T09:52:47.204Z,48.57
2023-03-01T09:58:00.420Z,47.77
2023-03-01T10:00:37.127Z,47.29
2023-03-01T10:06:10.172Z,47.14
2023-03-01T10:08:58.799Z,46.76
2023-03-01T10:11:29.505Z,46.01
2023-03-01T10:13:59.628Z,46.64
2023-03-01T10:16:46.464Z,45.69
2023-03-01T10:19:22.986Z,44.82
2023-03-01T10:21:51.950Z,45.09
2023-03-01T10:24:21.823Z,45.10
2023-03-01T10:26:53.082Z,43.96
2023-03-01T10:29:25.208Z,44.09
2023-03-01T10:31:53.210Z,44.37
2023-03-01T10:34:30.123Z,43.82
2023-03-01T10:37:02.211Z,45.07
2023-03-01T10:39:28.826Z,44.22
2023-03-01T10:42:01.511Z,43.58
2023-03-01T10:44:48.764Z,43.54
2023-03-01T10:47:22.864Z,42.61
2023-03-01T10:49:59.921Z,43.08
2023-03-01T10:52:29.964Z,43.59
2023-03-01T10:55:21.771Z,43.26
2023-03-01T11:00:23.612Z,42.81
2023-03-01T11:03:12.183Z,43.14
2023-03-01T11:08:51.276Z,43.47
2023-03-01T11:11:20.941Z,42.76
2023-03-01T11:14:10.487Z,42.80
2023-03-01T11:16:45.430Z,43.22
2023-03-01T11:19:12.011Z,43.26
2023-03-01T11:21:45.106Z,42.77
2023-03-01T11:24:15.406Z,42.21
2023-03-01T11:26:48.394Z,42.23
2023-03-01T11:29:48.570Z,43.04
2023-03-01T11:32:16.533Z,42.58
2023-03-01T11:34:54.649Z,43.21
2023-03-01T11:37:47.922Z,42.37
2023-03-01T11:40:25.287Z,41.88
2023-03-01T11:43:03.314Z,41.64
2023-03-01T11:45:52.766Z,41.00
2023-03-01T11:48:50.053Z,41.59
2023-03-01T11:51:32.784Z,41.32
2023-03-01T11:54:14.345Z,41.71
2023-03-01T11:57:01.468Z,42.43
2023-03-01T12:00:06.070Z,41.60
2023-03-01T12:08:38.883Z,41.92
2023-03-01T12:11:05.487Z,41.80
2023-03-01T12:13:45.657Z,41.70
2023-03-01T12:16:38.349Z,41.44
2023-03-01T12:19:27.366Z,41.29
2023-03-01T12:22:08.414Z,41.09
2023-03-01T12:24:53.928Z,40.49
2023-03-01T12:27:41.420Z,40.74
2023-03-01T12:30:26.777Z,41.01
2023-03-01T12:33:34.924Z,40.61
2023-03-01T12:36:25.582Z,41.28
2023-03-01T12:39:17.307Z,41.32
2023-03-01T12:42:12.456Z,41.00
2023-03-01T12:48:03.156Z,40.72
2023-03-01T12:50:37.987Z,40.86
2023-03-01T12:53:04.504Z,41.48
2023-03-01T12:58:19.558Z,41.35
2023-03-01T13:01:20.546Z,41.23
2023-03-01T13:04:12.877Z,40.80
2023-03-01T13:07:09.246Z,41.68
2023-03-01T13:09:57.055Z,41.54
2023-03-01T13:12:53.690Z,40.82
2023-03-01T13:18:03.831Z,41.77
2023-03-01T13:20:47.319Z,42.43
2023-03-01T13:23:22.796Z,42.78
2023-03-01T13:26:01.156Z,41.89
2023-03-01T13:29:03.603Z,42.27
2023-03-01T13:31:30.223Z,42.39
2023-03-01T13:36:31.675Z,42.60
2023-03-01T13:39:01.211Z,42.89
2023-03-01T13:44:43.767Z,43.67
2023-03-01T13:47:11.143Z,44.03
2023-03-01T13:49:48.650Z,45.16
2023-03-01T13:52:29.055Z,45.02
2023-03-01T13:54:57.661Z,45.23
2023-03-01T13:57:30.032Z,44.92
2023-03-01T13:59:56.532Z,44.61
2023-03-01T14:02:23.812Z,44.32
2023-03-01T14:05:00.830Z,45.15
2023-03-01T14:07:32.048Z,45.36
2023-03-01T14:10:02.708Z,45.55
2023-03-01T14:12:58.373Z,45.13
2023-03-01T14:15:39.391Z,44.68
2023-03-01T14:18:33.777Z,44.88
2023-03-01T14:21:00.445Z,44.69
2023-03-01T14:23:28.116Z,44.33
2023-03-01T14:25:56.281Z,45.37
2023-03-01T14:28:27.467Z,44.91
2023-03-01T14:31:01.699Z,45.18
2023-03-01T14:33:43.295Z,45.26
2023-03-01T14:36:13.768Z,45.68
2023-03-01T14:38:40.341Z,46.30
2023-03-01T14:41:13.787Z,46.12
2023-03-01T14:43:44.479Z,46.16
2023-03-01T14:46:41.620Z,46.28
2023-03-01T14:49:18.113Z,46.67
2023-03-01T14:52:03.050Z,45.61
2023-03-01T14:54:49.272Z,47.17
2023-03-01T14:57:22.790Z,46.99
2023-03-01T14:59:51.906Z,46.32
2023-03-01T15:02:21.014Z,47.13
2023-03-01T15:04:50.186Z,46.36
2023-03-01T15:07:16.988Z,46.48
2023-03-01T15:09:44.069Z,47.15
2023-03-01T15:12:28.777Z,46.59
2023-03-01T15:15:04.388Z,46.93
2023-03-01T15:17:35.913Z,46.42
2023-03-01T15:22:38.045Z,46.17
2023-03-01T15:25:05.251Z,46.58
2023-03-01T15:27:31.857Z,46.53
2023-03-01T15:30:03.295Z,46.79
2023-03-01T15:32:40.361Z,47.23
2023-03-01T15:35:49.030Z,46.63
2023-03-01T15:38:29.355Z,48.06
2023-03-01T15:40:57.565Z,46.35
2023-03-01T15:43:47.809Z,46.95
2023-03-01T15:46:24.703Z,47.00
2023-03-01T15:48:55.734Z,46.24
2023-03-01T15:51:30.791Z,47.00
2023-03-01T15:54:00.646Z,46.81
2023-03-01T15:56:27.343Z,47.53
2023-03-01T15:58:53.890Z,46.70
2023-03-01T16:03:51.832Z,47.37
2023-03-01T16:06:18.668Z,47.57
2023-03-01T16:08:45.180Z,47.46
2023-03-01T16:11:18.077Z,47.53
2023-03-01T16:13:45.684Z,47.11
2023-03-01T16:16:16.035Z,47.15
2023-03-01T16:18:47.728Z,47.37
2023-03-01T16:26:38.811Z,47.77
2023-03-01T16:29:05.948Z,48.55
2023-03-01T16:31:33.728Z,48.33
2023-03-01T16:34:00.886Z,48.32
2023-03-01T16:39:04.540Z,49.34
2023-03-01T16:41:32.093Z,48.68
2023-03-01T16:43:58.864Z,49.61
2023-03-01T16:49:01.183Z,50.44
2023-03-01T16:51:27.868Z,50.53
2023-03-01T16:53:54.494Z,50.49
2023-03-01T16:56:21.187Z,50.64
2023-03-01T16:58:48.197Z,50.39
2023-03-01T17:01:20.548Z,51.08
2023-03-01T17:03:48.536Z,50.72
2023-03-01T17:08:51.977Z,51.64
2023-03-01T17:13:51.673Z,51.99
2023-03-01T17:16:20.576Z,53.44
2023-03-01T17:18:47.722Z,53.32
2023-03-01T17:21:15.185Z,53.64
2023-03-01T17:23:44.099Z,54.32
2023-03-01T17:26:11.078Z,54.65
2023-03-01T17:28:38.554Z,55.85
2023-03-01T17:31:07.007Z,56.17
2023-03-01T17:33:33.632Z,56.50
2023-03-01T17:36:00.457Z,57.20
2023-03-01T17:38:27.219Z,58.22
2023-03-01T17:40:53.792Z,58.31
2023-03-01T17:45:58.709Z,58.93
2023-03-01T17:48:26.031Z,58.77
2023-03-01T17:50:52.791Z,58.52
2023-03-01T17:53:19.381Z,58.99
2023-03-01T17:55:46.216Z,58.81
2023-03-01T17:58:14.534Z,59.09
2023-03-01T18:00:41.721Z,59.14
2023-03-01T18:03:08.294Z,59.07
2023-03-01T18:05:36.678Z,59.57
2023-03-01T18:08:03.288Z,60.26
2023-03-01T18:13:03.258Z,61.21
2023-03-01T18:15:29.776Z,61.89
2023-03-01T18:17:56.278Z,62.40
2023-03-01T18:20:22.878Z,61.79
2023-03-01T18:22:51.017Z,62.30
2023-03-01T18:25:17.579Z,62.05
2023-03-01T18:27:44.172Z,61.98
2023-03-01T18:30:11.524Z,62.09
2023-03-01T18:32:39.789Z,62.68
2023-03-01T18:35:07.806Z,62.21
2023-03-01T18:37:34.460Z,62.22
2023-03-01T18:40:00.997Z,62.55
2023-03-01T18:42:27.689Z,62.07
2023-03-01T18:44:54.243Z,61.45
2023-03-01T18:47:20.849Z,61.20
2023-03-01T18:49:47.411Z,60.84
2023-03-01T18:52:14.094Z,60.86
2023-03-01T18:54:40.677Z,61.82
2023-03-01T18:57:07.338Z,61.73
2023-03-01T18:59:33.993Z,62.24
2023-03-01T19:02:00.591Z,61.83
2023-03-01T19:04:27.598Z,61.06
2023-03-01T19:06:54.329Z,65.13
2023-03-01T19:09:21.172Z,61.10
2023-03-01T19:11:47.835Z,60.96
2023-03-01T19:14:14.375Z,61.35
2023-03-01T19:16:40.975Z,61.05
2023-03-01T19:19:10.172Z,61.06
2023-03-01T19:24:08.833Z,61.76
2023-03-01T19:26:36.038Z,61.49
2023-03-01T19:29:03.982Z,62.19
2023-03-01T19:31:31.176Z,62.71
2023-03-01T19:34:10.002Z,62.54
2023-03-01T19:36:38.970Z,62.42
2023-03-01T19:39:06.904Z,61.44
2023-03-01T19:41:33.840Z,61.97
2023-03-01T19:44:04.602Z,62.24
2023-03-01T19:46:31.735Z,62.48
2023-03-01T19:49:00.576Z,62.84
2023-03-01T19:51:27.840Z,63.16
2023-03-01T19:53:54.986Z,62.68
2023-03-01T19:59:00.571Z,62.15
2023-03-01T20:04:10.676Z,62.80
2023-03-01T20:06:38.122Z,62.54
2023-03-01T20:09:20.416Z,61.81
2023-03-01T20:11:47.542Z,61.23
2023-03-01T20:14:14.221Z,60.82
2023-03-01T20:16:41.454Z,60.62
2023-03-01T20:19:08.257Z,60.17
2023-03-01T20:21:35.067Z,60.01
2023-03-01T20:24:02.168Z,59.71
2023-03-01T20:26:29.515Z,59.18
2023-03-01T20:28:57.341Z,59.51
2023-03-01T20:31:29.925Z,59.78
2023-03-01T20:33:58.189Z,60.11
2023-03-01T20:36:25.281Z,60.46
2023-03-01T20:38:53.608Z,60.06
2023-03-01T20:41:20.802Z,60.58
2023-03-01T20:43:54.956Z,60.95
2023-03-01T20:46:23.871Z,60.20
2023-03-01T20:48:53.973Z,61.69
2023-03-01T20:51:20.821Z,62.37
2023-03-01T20:53:47.609Z,62.36
2023-03-01T20:56:16.392Z,62.88
2023-03-01T20:58:43.361Z,63.62
2023-03-01T21:01:15.519Z,64.10
2023-03-01T21:03:42.300Z,64.69
2023-03-01T21:06:09.343Z,64.55
2023-03-01T21:08:36.223Z,64.84
2023-03-01T21:11:05.699Z,65.28
2023-03-01T21:13:34.430Z,65.68
2023-03-01T21:16:13.394Z,65.34
2023-03-01T21:18:41.027Z,65.38
2023-03-01T21:21:09.451Z,65.03
2023-03-01T21:23:37.860Z,65.65
2023-03-01T21:26:06.068Z,65.73
2023-03-01T21:28:33.604Z,65.83
2023-03-01T21:31:08.769Z,66.13
2023-03-01T21:36:10.031Z,66.21
2023-03-01T21:38:39.845Z,66.68
2023-03-01T21:41:10.665Z,67.03
2023-03-01T21:46:21.420Z,67.06
2023-03-01T21:54:02.748Z,66.59
2023-03-01T21:56:32.001Z,66.85
2023-03-01T21:58:58.977Z,67.14
2023-03-01T22:01:27.634Z,66.86
2023-03-01T22:06:42.545Z,66.47
2023-03-01T22:09:20.837Z,67.21
2023-03-01T22:11:50.886Z,66.54
2023-03-01T22:14:18.877Z,66.84
2023-03-01T22:16:47.795Z,68.29
2023-03-01T22:19:16.314Z,67.88
2023-03-01T22:21:44.868Z,67.92
2023-03-01T22:24:12.413Z,67.30
2023-03-01T22:26:41.200Z,66.49
2023-03-01T22:29:12.066Z,66.37
2023-03-01T22:31:39.512Z,66.61
2023-03-01T22:34:06.696Z,67.22
2023-03-01T22:36:34.103Z,67.20
2023-03-01T22:39:01.988Z,67.34
2023-03-01T22:41:37.424Z,66.78
2023-03-01T22:44:04.210Z,66.93
2023-03-01T22:46:31.176Z,66.98
2023-03-01T22:48:57.975Z,67.58
2023-03-01T22:51:27.866Z,67.83
2023-03-01T22:53:54.672Z,67.25
2023-03-01T22:56:24.332Z,67.32
2023-03-01T22:58:55.988Z,68.06
2023-03-01T23:01:24.573Z,68.03
2023-03-01T23:03:51.748Z,68.32
2023-03-01T23:08:53.170Z,69.11
2023-03-01T23:11:20.937Z,69.18
2023-03-01T23:13:47.835Z,68.56
2023-03-01T23:16:15.296Z,68.70
2023-03-01T23:18:42.550Z,68.57
2023-03-01T23:21:14.497Z,69.50
2023-03-01T23:23:41.511Z,69.56
2023-03-01T23:26:08.949Z,69.45
2023-03-01T23:28:40.600Z,70.48
2023-03-01T23:31:11.216Z,69.71
2023-03-01T23:33:37.957Z,70.27
2023-03-01T23:36:06.768Z,69.95
2023-03-01T23:38:33.470Z,69.24
2023-03-01T23:41:00.127Z,68.88
2023-03-01T23:43:26.740Z,69.82
2023-03-01T23:45:54.451Z,69.55
2023-03-01T23:48:21.265Z,69.40
2023-03-01T23:50:48.939Z,69.16
2023-03-01T23:53:18.144Z,69.17
2023-03-01T23:55:54.032Z,69.45
2023-03-01T23:58:26.089Z,69.39
